createdAt,value
2022-10-06T00:01:57.823Z,99.90
2022-10-06T00:04:27.212Z,99.90
2022-10-06T00:06:55.258Z,99.90
2022-10-06T00:09:24.697Z,99.90
2022-10-06T00:11:52.769Z,99.90
2022-10-06T00:14:21.224Z,99.90
2022-10-06T00:16:51.490Z,99.90
2022-10-06T00:19:19.841Z,99.90
2022-10-06T00:21:48.164Z,99.90
2022-10-06T00:24:16.348Z,99.90
2022-10-06T00:26:46.184Z,99.90
2022-10-06T00:29:14.786Z,99.90
2022-10-06T00:31:43.698Z,99.90
2022-10-06T00:34:11.728Z,99.90
2022-10-06T00:36:49.021Z,99.90
2022-10-06T00:39:17.031Z,99.90
2022-10-06T00:41:46.553Z,99.90
2022-10-06T00:44:14.570Z,99.90
2022-10-06T00:46:46.292Z,99.90
2022-10-06T00:49:19.898Z,99.90
2022-10-06T00:52:02.895Z,99.90
2022-10-06T00:54:37.815Z,99.90
2022-10-06T01:02:16.010Z,99.90
2022-10-06T01:05:21.380Z,99.90
2022-10-06T01:08:50.314Z,99.90
2022-10-06T01:11:19.808Z,99.90
2022-10-06T01:14:05.090Z,99.90
2022-10-06T01:16:37.618Z,99.90
2022-10-06T01:19:15.040Z,99.90
2022-10-06T01:21:48.531Z,99.90
2022-10-06T01:24:19.984Z,99.90
2022-10-06T01:26:52.601Z,99.90
2022-10-06T01:29:21.514Z,99.90
2022-10-06T01:31:51.255Z,99.90
2022-10-06T01:34:19.575Z,99.90
2022-10-06T01:36:57.261Z,99.90
2022-10-06T01:39:27.921Z,99.90
2022-10-06T01:41:56.120Z,99.90
2022-10-06T01:44:32.510Z,99.90
2022-10-06T01:47:11.979Z,99.90
2022-10-06T01:49:40.331Z,99.90
2022-10-06T01:52:09.213Z,99.90
2022-10-06T01:54:38.660Z,99.90
2022-10-06T01:57:08.335Z,99.90
2022-10-06T01:59:36.538Z,99.90
2022-10-06T02:02:05.084Z,99.90
2022-10-06T02:04:33.225Z,99.90
2022-10-06T02:07:04.265Z,99.90
2022-10-06T02:09:41.140Z,99.90
2022-10-06T02:12:09.999Z,99.90
2022-10-06T02:14:40.964Z,99.90
2022-10-06T02:17:11.038Z,99.90
2022-10-06T02:19:39.470Z,99.90
2022-10-06T02:22:09.324Z,99.90
2022-10-06T02:24:41.096Z,99.90
2022-10-06T02:27:09.309Z,99.90
2022-10-06T02:29:38.042Z,99.90
2022-10-06T02:32:07.870Z,99.90
2022-10-06T02:34:35.986Z,99.90
2022-10-06T02:37:07.411Z,99.90
2022-10-06T02:39:35.569Z,99.90
2022-10-06T02:42:06.745Z,99.90
2022-10-06T02:44:34.856Z,99.90
2022-10-06T02:47:03.369Z,99.90
2022-10-06T02:49:40.054Z,99.90
2022-10-06T02:52:11.103Z,99.90
2022-10-06T02:54:40.808Z,99.90
2022-10-06T02:57:17.696Z,99.90
2022-10-06T02:59:52.091Z,99.90
2022-10-06T03:02:27.158Z,99.90
2022-10-06T03:04:55.239Z,99.90
2022-10-06T03:07:23.329Z,99.90
2022-10-06T03:09:51.377Z,99.90
2022-10-06T03:12:21.168Z,99.90
2022-10-06T03:14:49.387Z,99.90
2022-10-06T03:17:24.863Z,99.90
2022-10-06T03:19:57.959Z,99.90
2022-10-06T03:22:26.445Z,99.90
2022-10-06T03:24:56.712Z,99.90
2022-10-06T03:27:26.246Z,99.90
2022-10-06T03:29:58.038Z,99.90
2022-10-06T03:32:30.201Z,99.90
2022-10-06T03:34:58.245Z,99.90
2022-10-06T03:37:26.379Z,99.90
2022-10-06T03:39:54.614Z,99.90
2022-10-06T03:42:22.799Z,99.90
2022-10-06T03:44:52.157Z,99.90
2022-10-06T03:47:20.519Z,99.90
2022-10-06T03:49:48.648Z,99.90
2022-10-06T03:52:19.316Z,99.90
2022-10-06T03:54:50.478Z,99.90
2022-10-06T03:57:18.511Z,99.90
2022-10-06T03:59:46.596Z,99.90
2022-10-06T04:02:17.086Z,99.90
2022-10-06T04:04:45.131Z,99.90
2022-10-06T04:07:13.429Z,99.90
2022-10-06T04:09:41.776Z,99.90
2022-10-06T04:12:11.796Z,99.90
2022-10-06T04:14:40.650Z,99.90
2022-10-06T04:17:09.614Z,99.90
2022-10-06T04:19:41.900Z,99.90
2022-10-06T04:22:09.988Z,99.90
2022-10-06T04:24:38.331Z,99.90
2022-10-06T04:27:23.858Z,99.90
2022-10-06T04:29:58.430Z,99.90
2022-10-06T04:32:41.442Z,99.90
2022-10-06T04:45:05.523Z,99.90
2022-10-06T04:47:57.772Z,99.90
2022-10-06T04:55:05.408Z,99.90
2022-10-06T05:04:59.748Z,99.90
2022-10-06T05:08:25.373Z,99.90
2022-10-06T05:16:19.664Z,99.90
2022-10-06T05:19:04.908Z,99.90
2022-10-06T05:21:53.781Z,99.90
2022-10-06T05:24:27.844Z,99.90
2022-10-06T05:27:20.959Z,99.90
2022-10-06T05:29:54.982Z,99.90
2022-10-06T05:32:41.784Z,99.90
2022-10-06T05:36:16.649Z,99.90
2022-10-06T05:39:06.137Z,99.90
2022-10-06T05:42:29.621Z,99.90
2022-10-06T05:45:35.474Z,99.90
2022-10-06T05:48:06.769Z,99.90
2022-10-06T05:50:36.364Z,99.90
2022-10-06T06:06:11.894Z,99.90
2022-10-06T06:12:35.199Z,99.90
2022-10-06T06:16:14.356Z,99.90
2022-10-06T06:18:46.382Z,99.90
2022-10-06T06:21:19.686Z,99.90
2022-10-06T06:23:57.344Z,99.90
2022-10-06T06:26:28.691Z,99.90
2022-10-06T06:29:05.285Z,99.90
2022-10-06T06:31:48.759Z,99.90
2022-10-06T06:34:18.163Z,99.90
2022-10-06T06:37:05.913Z,99.90
2022-10-06T06:39:41.017Z,99.90
2022-10-06T06:42:11.584Z,99.90
2022-10-06T06:44:58.601Z,99.90
2022-10-06T06:53:52.743Z,99.90
2022-10-06T06:56:24.792Z,99.90
2022-10-06T06:59:20.218Z,99.90
2022-10-06T07:05:33.194Z,99.90
2022-10-06T07:14:29.191Z,99.90
2022-10-06T07:17:14.213Z,99.90
2022-10-06T07:20:05.605Z,99.90
2022-10-06T07:22:55.586Z,99.90
2022-10-06T07:25:27.495Z,99.90
2022-10-06T07:27:58.533Z,99.90
2022-10-06T07:30:41.525Z,99.90
2022-10-06T07:33:20.789Z,99.90
2022-10-06T07:35:50.207Z,99.90
2022-10-06T07:38:25.721Z,99.90
2022-10-06T07:41:14.906Z,99.90
2022-10-06T07:43:46.867Z,99.90
2022-10-06T07:46:19.244Z,99.90
2022-10-06T07:48:55.135Z,99.90
2022-10-06T07:51:24.625Z,99.90
2022-10-06T07:53:54.366Z,99.90
2022-10-06T07:56:48.790Z,99.90
2022-10-06T07:59:27.304Z,99.90
2022-10-06T08:02:03.295Z,99.90
2022-10-06T08:04:42.146Z,99.90
2022-10-06T08:07:13.563Z,99.90
2022-10-06T08:09:45.910Z,99.90
2022-10-06T08:12:34.652Z,99.90
2022-10-06T08:15:07.067Z,99.90
2022-10-06T08:17:37.624Z,99.90
2022-10-06T08:20:07.729Z,99.90
2022-10-06T08:22:36.327Z,99.90
2022-10-06T08:25:06.529Z,99.90
2022-10-06T08:27:36.151Z,99.90
2022-10-06T08:30:05.067Z,99.90
2022-10-06T08:32:33.264Z,99.90
2022-10-06T08:35:03.392Z,99.90
2022-10-06T08:37:31.799Z,99.90
2022-10-06T08:40:02.942Z,99.90
2022-10-06T08:42:39.634Z,99.90
2022-10-06T08:45:15.753Z,99.90
2022-10-06T08:47:52.127Z,99.90
2022-10-06T08:50:22.398Z,99.90
2022-10-06T08:53:01.937Z,99.90
2022-10-06T08:55:39.286Z,99.90
2022-10-06T08:58:29.263Z,99.90
2022-10-06T09:01:03.036Z,99.90
2022-10-06T09:03:31.684Z,99.90
2022-10-06T09:06:07.275Z,99.90
2022-10-06T09:08:46.028Z,99.90
2022-10-06T09:11:30.741Z,99.90
2022-10-06T09:14:10.687Z,99.90
2022-10-06T09:16:45.411Z,99.90
2022-10-06T09:19:21.235Z,99.90
2022-10-06T09:21:56.182Z,99.90
2022-10-06T09:24:47.539Z,99.90
2022-10-06T09:27:36.621Z,99.90
2022-10-06T09:30:06.272Z,99.90
2022-10-06T09:32:35.684Z,99.90
2022-10-06T09:35:25.088Z,99.90
2022-10-06T09:38:16.633Z,99.90
2022-10-06T09:40:55.728Z,99.90
2022-10-06T09:43:34.951Z,99.90
2022-10-06T09:46:22.113Z,99.90
2022-10-06T09:49:19.142Z,99.90
2022-10-06T09:52:15.125Z,99.90
2022-10-06T09:54:45.615Z,99.90
2022-10-06T09:57:19.210Z,99.90
2022-10-06T09:59:49.976Z,99.90
2022-10-06T10:02:31.266Z,99.90
2022-10-06T10:05:02.889Z,99.90
2022-10-06T10:07:33.769Z,99.90
2022-10-06T10:10:28.331Z,99.90
2022-10-06T10:13:00.383Z,99.90
2022-10-06T10:15:33.017Z,99.90
2022-10-06T10:18:04.082Z,99.90
2022-10-06T10:20:38.171Z,99.90
2022-10-06T10:23:27.276Z,99.90
2022-10-06T10:26:17.517Z,99.90
2022-10-06T10:29:08.855Z,99.90
2022-10-06T10:31:49.039Z,99.90
2022-10-06T10:34:31.044Z,99.90
2022-10-06T10:37:04.903Z,99.90
2022-10-06T10:39:37.139Z,99.90
2022-10-06T10:42:13.353Z,99.90
2022-10-06T10:44:47.937Z,99.90
2022-10-06T10:47:25.490Z,99.90
2022-10-06T10:50:01.200Z,99.90
2022-10-06T10:52:33.042Z,99.90
2022-10-06T10:55:14.292Z,99.90
2022-10-06T10:57:45.017Z,99.90
2022-10-06T11:00:20.708Z,99.90
2022-10-06T11:02:48.885Z,99.90
2022-10-06T11:05:29.087Z,99.90
2022-10-06T11:08:03.112Z,99.90
2022-10-06T11:10:35.606Z,99.90
2022-10-06T11:13:21.060Z,99.90
2022-10-06T11:16:04.490Z,99.90
2022-10-06T11:18:49.266Z,99.90
2022-10-06T11:21:26.065Z,99.90
2022-10-06T11:24:03.461Z,99.90
2022-10-06T11:26:43.419Z,99.90
2022-10-06T11:29:26.539Z,99.90
2022-10-06T11:32:01.989Z,99.90
2022-10-06T11:34:30.212Z,99.90
2022-10-06T11:37:09.886Z,99.90
2022-10-06T11:39:52.281Z,99.90
2022-10-06T11:45:04.588Z,99.90
2022-10-06T11:47:36.813Z,99.90
2022-10-06T11:50:33.271Z,99.90
2022-10-06T11:53:01.848Z,99.90
2022-10-06T11:55:30.499Z,99.90
2022-10-06T11:58:40.866Z,99.90
2022-10-06T12:01:07.293Z,99.90
2022-10-06T12:03:48.806Z,99.90
2022-10-06T12:06:58.464Z,99.90
2022-10-06T12:09:46.122Z,99.90
2022-10-06T12:13:08.072Z,99.90
2022-10-06T12:19:19.394Z,99.40
2022-10-06T12:21:54.571Z,99.60
2022-10-06T12:24:31.692Z,98.80
2022-10-06T12:27:25.827Z,98.50
2022-10-06T12:30:02.930Z,99.20
2022-10-06T12:32:46.477Z,98.30
2022-10-06T12:35:40.069Z,98.10
2022-10-06T12:38:44.124Z,97.70
2022-10-06T12:41:13.535Z,97.70
2022-10-06T12:43:56.904Z,99.30
2022-10-06T12:46:44.462Z,97.50
2022-10-06T12:49:34.368Z,98.40
2022-10-06T12:52:18.508Z,98.20
2022-10-06T12:54:58.783Z,99.30
2022-10-06T12:57:30.741Z,98.20
2022-10-06T13:00:01.478Z,99.00
2022-10-06T13:02:29.876Z,99.50
2022-10-06T13:05:02.694Z,98.50
2022-10-06T13:07:33.048Z,98.70
2022-10-06T13:10:20.555Z,99.40
2022-10-06T13:12:51.991Z,98.60
2022-10-06T13:15:23.771Z,98.90
2022-10-06T13:17:54.441Z,99.50
2022-10-06T13:20:37.878Z,99.40
2022-10-06T13:23:24.089Z,98.90
2022-10-06T13:25:56.119Z,98.60
2022-10-06T13:28:40.615Z,98.20
2022-10-06T13:31:21.848Z,97.30
2022-10-06T13:33:53.334Z,98.70
2022-10-06T13:36:23.663Z,98.10
2022-10-06T13:38:53.300Z,98.00
2022-10-06T13:41:26.924Z,98.30
2022-10-06T13:44:01.205Z,98.10
2022-10-06T13:46:32.528Z,97.30
2022-10-06T13:49:15.037Z,98.30
2022-10-06T13:51:49.603Z,98.30
2022-10-06T13:54:25.654Z,99.20
2022-10-06T13:56:53.745Z,99.40
2022-10-06T13:59:37.138Z,98.90
2022-10-06T14:02:25.843Z,99.10
2022-10-06T14:05:29.431Z,99.80
2022-10-06T14:08:01.468Z,98.50
2022-10-06T14:10:33.636Z,98.30
2022-10-06T14:13:02.870Z,98.60
2022-10-06T14:15:37.428Z,98.50
2022-10-06T14:18:06.415Z,97.50
2022-10-06T14:20:47.872Z,97.90
2022-10-06T14:23:52.281Z,97.60
2022-10-06T14:26:27.002Z,97.00
2022-10-06T14:28:56.261Z,97.50
2022-10-06T14:31:26.321Z,97.70
2022-10-06T14:34:05.098Z,97.80
2022-10-06T14:36:38.214Z,98.50
2022-10-06T14:39:10.574Z,99.50
2022-10-06T14:41:38.868Z,97.90
2022-10-06T14:44:16.344Z,98.10
2022-10-06T14:47:05.717Z,98.40
2022-10-06T14:49:42.788Z,99.00
2022-10-06T14:52:18.415Z,98.30
2022-10-06T14:54:57.372Z,98.70
2022-10-06T14:57:37.516Z,98.90
2022-10-06T15:00:10.429Z,98.30
2022-10-06T15:02:38.750Z,98.90
2022-10-06T15:05:13.747Z,99.20
2022-10-06T15:08:00.259Z,99.20
2022-10-06T15:10:30.233Z,98.70
2022-10-06T15:13:01.094Z,98.60
2022-10-06T15:15:33.709Z,99.00
2022-10-06T15:18:04.760Z,99.20
2022-10-06T15:20:33.117Z,99.20
2022-10-06T15:23:05.744Z,99.50
2022-10-06T15:26:16.667Z,99.80
2022-10-06T15:29:19.239Z,99.90
2022-10-06T15:32:30.072Z,99.90
2022-10-06T15:35:31.947Z,99.90
2022-10-06T15:38:22.863Z,99.90
2022-10-06T15:41:30.329Z,99.90
2022-10-06T15:44:38.846Z,99.90
2022-10-06T15:47:40.374Z,99.90
2022-10-06T15:50:56.085Z,99.90
2022-10-06T17:47:56.661Z,99.90
2022-10-06T19:21:09.839Z,99.90
2022-10-06T19:33:35.747Z,99.90
2022-10-06T19:40:30.404Z,99.90
2022-10-06T20:13:30.116Z,99.90
2022-10-06T20:54:33.988Z,99.90
2022-10-06T21:29:09.004Z,99.90
2022-10-06T21:31:43.829Z,99.90
2022-10-06T21:34:18.411Z,99.90
2022-10-06T21:36:46.975Z,99.90
2022-10-06T21:39:15.495Z,99.90
2022-10-06T21:41:43.837Z,99.90
2022-10-06T21:44:39.038Z,99.90
2022-10-06T21:47:24.907Z,99.90
2022-10-06T21:49:53.292Z,99.90
2022-10-06T21:52:37.586Z,99.90
2022-10-06T21:55:08.803Z,99.90
2022-10-06T21:57:37.647Z,99.90
2022-10-06T22:00:11.180Z,99.90
2022-10-06T22:02:41.161Z,99.90
2022-10-06T22:05:14.088Z,99.90
2022-10-06T22:07:42.829Z,99.90
2022-10-06T22:10:15.153Z,99.90
2022-10-06T22:12:43.514Z,99.90
2022-10-06T23:34:09.971Z,99.90
2022-10-06T23:38:05.979Z,99.90
